createdAt,value
2023-02-22T00:01:08.295Z,14.80
2023-02-22T00:03:39.238Z,10.38
2023-02-22T00:06:08.415Z,18.88
2023-02-22T00:08:38.504Z,14.90
2023-02-22T00:11:15.151Z,12.70
2023-02-22T00:13:45.378Z,15.88
2023-02-22T00:16:20.415Z,16.70
2023-02-22T00:18:59.788Z,12.80
2023-02-22T00:21:44.977Z,14.07
2023-02-22T00:24:24.222Z,14.43
2023-02-22T00:26:58.843Z,10.88
2023-02-22T00:29:50.540Z,11.80
2023-02-22T00:32:20.296Z,15.70
2023-02-22T00:34:55.905Z,14.05
2023-02-22T00:37:32.007Z,14.48
2023-02-22T00:40:14.735Z,16.35
2023-02-22T00:43:43.576Z,16.15
2023-02-22T00:46:17.672Z,13.13
2023-02-22T00:48:58.686Z,15.48
2023-02-22T00:51:29.347Z,13.82
2023-02-22T00:54:05.286Z,14.75
2023-02-22T00:56:37.532Z,18.33
2023-02-22T00:59:08.993Z,16.02
2023-02-22T01:01:38.044Z,11.98
2023-02-22T01:04:10.013Z,9.73
2023-02-22T01:06:42.169Z,11.57
2023-02-22T01:09:14.954Z,11.35
2023-02-22T01:11:43.490Z,11.48
2023-02-22T01:14:12.351Z,10.20
2023-02-22T01:16:47.821Z,13.23
2023-02-22T01:19:19.848Z,8.88
2023-02-22T01:21:57.444Z,14.20
2023-02-22T01:24:32.338Z,8.50
2023-02-22T01:27:07.131Z,8.95
2023-02-22T01:29:51.788Z,7.88
2023-02-22T01:32:20.859Z,11.13
2023-02-22T01:34:57.753Z,11.20
2023-02-22T01:37:30.753Z,12.18
2023-02-22T01:40:09.185Z,19.38
2023-02-22T01:42:38.352Z,14.82
2023-02-22T01:45:53.604Z,12.48
2023-02-22T01:48:40.127Z,14.68
2023-02-22T01:51:17.787Z,15.80
2023-02-22T01:56:56.443Z,11.80
2023-02-22T01:59:33.498Z,12.32
2023-02-22T02:02:05.204Z,12.90
2023-02-22T02:04:42.985Z,17.80
2023-02-22T02:07:17.895Z,13.63
2023-02-22T02:09:54.472Z,16.73
2023-02-22T02:12:29.422Z,11.50
2023-02-22T02:15:22.884Z,12.35
2023-02-22T02:17:57.801Z,20.67
2023-02-22T02:20:35.557Z,14.80
2023-02-22T02:23:20.938Z,14.40
2023-02-22T02:26:25.085Z,15.52
2023-02-22T02:29:36.463Z,13.75
2023-02-22T02:32:38.409Z,14.80
2023-02-22T02:35:14.595Z,18.00
2023-02-22T02:37:55.747Z,17.40
2023-02-22T02:40:32.900Z,18.60
2023-02-22T02:43:06.103Z,12.43
2023-02-22T02:45:40.430Z,9.35
2023-02-22T02:48:16.103Z,16.67
2023-02-22T02:50:48.537Z,12.65
2023-02-22T02:53:26.434Z,14.38
2023-02-22T02:56:03.676Z,12.75
2023-02-22T02:58:37.365Z,21.15
2023-02-22T03:01:11.273Z,12.73
2023-02-22T03:03:50.689Z,14.85
2023-02-22T03:06:47.194Z,18.60
2023-02-22T03:09:30.003Z,11.02
2023-02-22T03:12:07.647Z,8.95
2023-02-22T03:14:44.305Z,12.95
2023-02-22T03:17:26.786Z,11.57
2023-02-22T03:20:09.811Z,12.23
2023-02-22T03:22:50.871Z,15.20
2023-02-22T03:25:29.508Z,12.82
2023-02-22T03:28:10.378Z,11.23
2023-02-22T03:30:49.130Z,13.70
2023-02-22T03:33:28.902Z,11.93
2023-02-22T03:36:05.203Z,13.77
2023-02-22T03:38:38.175Z,12.85
2023-02-22T03:41:13.257Z,18.52
2023-02-22T03:43:48.537Z,15.60
2023-02-22T03:46:20.505Z,9.82
2023-02-22T03:49:01.675Z,11.52
2023-02-22T03:51:40.710Z,13.05
2023-02-22T03:54:16.667Z,10.38
2023-02-22T03:57:12.030Z,11.43
2023-02-22T03:59:44.448Z,11.90
2023-02-22T04:02:13.482Z,13.68
2023-02-22T04:04:48.155Z,10.82
2023-02-22T04:07:19.986Z,9.88
2023-02-22T04:09:55.778Z,12.70
2023-02-22T04:15:07.956Z,8.40
2023-02-22T04:17:40.129Z,10.43
2023-02-22T04:20:13.754Z,11.80
2023-02-22T04:23:06.965Z,9.75
2023-02-22T04:25:39.623Z,9.80
2023-02-22T04:28:27.978Z,8.07
2023-02-22T04:31:08.088Z,9.73
2023-02-22T04:33:44.769Z,11.88
2023-02-22T04:36:19.626Z,7.35
2023-02-22T04:41:23.901Z,11.18
2023-02-22T04:43:55.818Z,10.20
2023-02-22T04:46:26.621Z,8.35
2023-02-22T04:48:55.984Z,9.93
2023-02-22T04:51:28.935Z,10.77
2023-02-22T04:54:13.856Z,8.20
2023-02-22T04:56:50.241Z,9.82
2023-02-22T04:59:19.918Z,10.23
2023-02-22T05:01:59.128Z,6.95
2023-02-22T05:04:28.288Z,9.07
2023-02-22T05:07:11.989Z,7.50
2023-02-22T05:09:50.018Z,9.35
2023-02-22T05:12:21.701Z,4.78
2023-02-22T05:15:13.246Z,6.85
2023-02-22T05:18:15.851Z,8.25
2023-02-22T05:21:00.696Z,6.15
2023-02-22T05:23:56.478Z,10.75
2023-02-22T05:26:59.945Z,6.80
2023-02-22T05:29:41.857Z,9.82
2023-02-22T05:32:18.578Z,11.55
2023-02-22T05:35:22.724Z,9.70
2023-02-22T05:38:16.729Z,12.40
2023-02-22T05:40:47.560Z,6.85
2023-02-22T05:47:16.720Z,8.18
2023-02-22T05:50:31.036Z,8.15
2023-02-22T05:57:30.628Z,6.22
2023-02-22T06:00:09.271Z,11.82
2023-02-22T06:59:09.518Z,8.38
2023-02-22T07:02:14.528Z,6.90
2023-02-22T07:05:32.712Z,7.43
2023-02-22T07:08:42.350Z,10.93
2023-02-22T07:22:39.278Z,7.18
2023-02-22T07:25:35.986Z,6.45
2023-02-22T07:28:24.795Z,7.75
2023-02-22T07:31:18.455Z,11.60
2023-02-22T07:34:15.878Z,6.32
2023-02-22T07:37:50.069Z,8.65
2023-02-22T07:42:33.189Z,7.25
2023-02-22T07:44:50.670Z,8.95
2023-02-22T07:48:26.233Z,4.88
2023-02-22T07:51:49.740Z,6.00
2023-02-22T07:55:06.915Z,7.72
2023-02-22T08:02:30.542Z,6.60
2023-02-22T08:05:41.951Z,5.17
2023-02-22T08:19:25.254Z,5.65
2023-02-22T08:22:43.565Z,4.18
2023-02-22T08:26:56.374Z,8.38
2023-02-22T08:29:59.260Z,5.03
2023-02-22T08:33:07.059Z,3.15
2023-02-22T08:36:36.074Z,1.95
2023-02-22T08:40:18.449Z,2.95
2023-02-22T08:43:07.277Z,4.55
2023-02-22T08:46:02.171Z,3.30
2023-02-22T08:49:09.236Z,2.70
2023-02-22T08:51:43.751Z,3.05
2023-02-22T08:54:31.103Z,3.22
2023-02-22T08:57:31.096Z,1.90
2023-02-22T09:00:55.560Z,2.70
2023-02-22T09:04:08.105Z,4.90
2023-02-22T09:07:46.825Z,2.85
2023-02-22T09:11:18.805Z,3.92
2023-02-22T09:14:12.900Z,1.98
2023-02-22T09:17:15.005Z,2.40
2023-02-22T09:20:29.193Z,2.00
2023-02-22T09:26:25.643Z,1.20
2023-02-22T09:29:38.783Z,1.57
2023-02-22T09:32:22.480Z,1.83
2023-02-22T09:35:08.021Z,3.05
2023-02-22T09:38:12.721Z,1.52
2023-02-22T09:40:59.060Z,1.60
2023-02-22T09:43:56.348Z,1.20
2023-02-22T09:46:50.920Z,2.13
2023-02-22T09:49:48.196Z,2.50
2023-02-22T09:53:04.654Z,1.75
2023-02-22T09:56:00.438Z,2.42
2023-02-22T10:00:05.234Z,3.35
2023-02-22T10:02:57.801Z,1.55
2023-02-22T10:05:40.136Z,1.48
2023-02-22T10:08:21.193Z,2.83
2023-02-22T10:11:41.290Z,2.30
2023-02-22T10:14:28.148Z,1.50
2023-02-22T10:17:10.060Z,3.37
2023-02-22T10:19:53.161Z,1.38
2023-02-22T10:22:38.578Z,3.75
2023-02-22T10:25:29.402Z,3.63
2023-02-22T10:28:16.557Z,3.22
2023-02-22T10:30:57.060Z,2.58
2023-02-22T10:33:40.892Z,2.05
2023-02-22T10:41:05.228Z,2.50
2023-02-22T10:43:42.907Z,2.00
2023-02-22T10:47:05.369Z,2.55
2023-02-22T10:49:58.244Z,1.23
2023-02-22T10:53:07.100Z,2.08
2023-02-22T12:30:11.538Z,5.13
2023-02-22T12:34:48.002Z,2.70
2023-02-22T12:50:33.375Z,5.45
2023-02-22T13:41:57.521Z,5.75
2023-02-22T15:24:03.186Z,7.32
2023-02-22T15:26:37.670Z,7.57
2023-02-22T15:29:11.169Z,5.85
2023-02-22T15:31:47.001Z,6.25
2023-02-22T15:34:24.934Z,5.65
2023-02-22T15:36:56.418Z,6.32
2023-02-22T15:39:29.657Z,11.10
2023-02-22T15:42:09.082Z,8.35
2023-02-22T15:44:40.992Z,8.70
2023-02-22T15:47:14.523Z,9.65
2023-02-22T15:49:45.640Z,7.05
2023-02-22T15:52:21.238Z,12.30
2023-02-22T15:54:52.807Z,8.10
2023-02-22T15:57:27.608Z,8.07
2023-02-22T16:07:55.768Z,6.18
2023-02-22T16:10:37.741Z,5.60
2023-02-22T16:13:48.678Z,6.47
2023-02-22T16:17:16.030Z,4.32
2023-02-22T16:34:11.227Z,9.82
2023-02-22T16:36:55.958Z,24.58
2023-02-22T16:42:22.454Z,10.95
2023-02-22T16:45:01.061Z,10.73
2023-02-22T16:47:37.407Z,14.27
2023-02-22T16:50:17.760Z,11.95
2023-02-22T16:52:53.992Z,13.25
2023-02-22T16:55:48.208Z,18.08
2023-02-22T16:58:23.575Z,17.65
2023-02-22T17:00:53.078Z,12.95
2023-02-22T17:03:22.928Z,10.90
2023-02-22T17:06:16.848Z,11.05
2023-02-22T17:11:30.656Z,10.48
2023-02-22T17:13:59.789Z,10.35
2023-02-22T17:16:51.679Z,9.23
2023-02-22T17:22:06.430Z,11.95
2023-02-22T17:24:39.481Z,9.38
2023-02-22T17:27:09.347Z,9.73
2023-02-22T17:30:15.505Z,12.63
2023-02-22T17:32:35.031Z,8.30
2023-02-22T17:35:11.567Z,9.70
2023-02-22T17:37:43.942Z,9.85
2023-02-22T17:40:37.103Z,8.82
2023-02-22T17:43:13.208Z,9.63
2023-02-22T17:45:42.827Z,9.73
2023-02-22T17:48:17.960Z,8.70
2023-02-22T17:51:00.014Z,10.05
2023-02-22T17:58:08.604Z,11.93
2023-02-22T18:01:27.279Z,9.65
2023-02-22T18:04:33.677Z,9.85
2023-02-22T18:07:34.452Z,8.07
2023-02-22T18:10:30.002Z,13.20
2023-02-22T18:13:19.525Z,13.93
2023-02-22T18:16:23.076Z,9.88
2023-02-22T18:19:28.932Z,8.32
2023-02-22T18:22:24.192Z,8.75
2023-02-22T18:25:15.859Z,10.20
2023-02-22T18:28:21.869Z,9.18
2023-02-22T18:31:39.271Z,9.77
2023-02-22T18:34:31.435Z,7.80
2023-02-22T18:37:33.660Z,7.03
2023-02-22T18:41:02.304Z,9.73
2023-02-22T18:44:32.501Z,7.18
2023-02-22T18:47:51.694Z,7.15
2023-02-22T18:51:12.810Z,39.47
2023-02-22T18:54:38.379Z,18.42
2023-02-22T18:57:50.072Z,13.55
2023-02-22T19:01:02.462Z,10.85
2023-02-22T19:03:57.433Z,10.50
2023-02-22T19:06:52.898Z,9.38
2023-02-22T19:09:54.030Z,9.45
2023-02-22T19:12:50.825Z,10.05
2023-02-22T19:16:54.860Z,10.40
2023-02-22T19:19:31.648Z,16.02
2023-02-22T19:26:25.474Z,14.48
2023-02-22T19:29:19.782Z,14.77
2023-02-22T19:32:18.263Z,15.75
2023-02-22T19:38:09.829Z,10.85
2023-02-22T19:41:16.258Z,10.35
2023-02-22T19:44:30.790Z,10.80
2023-02-22T19:51:28.494Z,9.88
2023-02-22T19:54:28.053Z,10.93
2023-02-22T19:57:33.899Z,10.32
2023-02-22T20:03:59.319Z,10.02
2023-02-22T20:07:17.430Z,10.45
2023-02-22T20:10:03.439Z,11.75
2023-02-22T20:12:53.412Z,9.15
2023-02-22T20:15:32.184Z,10.35
2023-02-22T20:18:12.040Z,10.48
2023-02-22T20:20:44.513Z,10.30
2023-02-22T20:23:18.540Z,10.40
2023-02-22T20:29:10.101Z,9.45
2023-02-22T20:31:50.666Z,9.77
2023-02-22T20:34:26.561Z,10.05
2023-02-22T20:37:06.582Z,8.68
2023-02-22T20:39:53.467Z,9.82
2023-02-22T20:42:24.987Z,9.13
2023-02-22T20:45:06.230Z,8.23
2023-02-22T20:47:38.048Z,10.60
2023-02-22T20:50:52.121Z,8.65
2023-02-22T20:53:31.487Z,8.50
2023-02-22T20:56:19.292Z,10.07
2023-02-22T20:58:55.902Z,8.95
2023-02-22T21:05:38.455Z,9.65
2023-02-22T21:13:35.165Z,12.68
2023-02-22T21:16:51.841Z,7.38
2023-02-22T21:19:34.615Z,13.25
2023-02-22T21:22:21.695Z,12.95
2023-02-22T21:25:06.882Z,9.52
2023-02-22T21:27:47.941Z,11.30
2023-02-22T21:30:54.665Z,11.10
2023-02-22T21:33:31.755Z,10.10
2023-02-22T21:36:11.895Z,8.27
2023-02-22T21:38:56.138Z,11.75
2023-02-22T21:41:29.439Z,10.85
2023-02-22T21:44:19.339Z,9.50
2023-02-22T21:47:53.095Z,10.02
2023-02-22T21:50:51.034Z,9.43
2023-02-22T21:53:20.927Z,9.27
2023-02-22T21:55:58.281Z,10.52
2023-02-22T21:58:41.392Z,9.45
2023-02-22T22:01:35.024Z,11.05
2023-02-22T22:04:31.733Z,8.23
2023-02-22T22:07:42.481Z,14.93
2023-02-22T22:10:34.983Z,14.07
2023-02-22T22:13:29.805Z,12.73
2023-02-22T22:21:43.068Z,12.05
2023-02-22T22:24:21.105Z,10.75
2023-02-22T22:26:57.027Z,7.97
2023-02-22T22:29:39.911Z,7.03
2023-02-22T22:32:20.849Z,10.43
2023-02-22T22:35:06.194Z,7.03
2023-02-22T22:37:51.793Z,7.65
2023-02-22T22:40:28.825Z,7.88
2023-02-22T22:43:21.992Z,7.50
2023-02-22T22:46:21.926Z,9.00
2023-02-22T22:48:56.816Z,7.55
2023-02-22T22:51:42.898Z,7.47
2023-02-22T22:54:16.180Z,10.35
2023-02-22T22:56:51.970Z,6.10
2023-02-22T22:59:34.459Z,9.60
2023-02-22T23:02:18.631Z,8.35
2023-02-22T23:05:04.589Z,8.45
2023-02-22T23:07:38.549Z,7.93
2023-02-22T23:10:15.928Z,7.50
2023-02-22T23:13:25.773Z,8.25
2023-02-22T23:15:58.394Z,9.60
2023-02-22T23:18:34.658Z,10.35
2023-02-22T23:21:05.835Z,10.90
2023-02-22T23:23:39.487Z,8.27
2023-02-22T23:26:21.054Z,9.55
2023-02-22T23:29:04.465Z,7.32
2023-02-22T23:31:48.987Z,9.20
2023-02-22T23:34:38.641Z,7.93
2023-02-22T23:37:14.562Z,9.70
2023-02-22T23:39:55.836Z,10.73
2023-02-22T23:42:29.107Z,8.63
2023-02-22T23:45:04.088Z,8.35
2023-02-22T23:48:01.655Z,9.10
2023-02-22T23:50:36.843Z,8.32
2023-02-22T23:53:09.539Z,9.55
2023-02-22T23:55:43.839Z,9.10
2023-02-22T23:58:14.559Z,11.60
